createdAt,value
2022-07-26T00:00:16.245Z,99738.22
2022-07-26T00:00:48.289Z,99739.59
2022-07-26T00:01:19.966Z,99733.53
2022-07-26T00:01:51.726Z,99737.25
2022-07-26T00:02:23.305Z,99737.72
2022-07-26T00:02:54.771Z,99736.22
2022-07-26T00:03:26.348Z,99733.69
2022-07-26T00:03:57.959Z,99739.38
2022-07-26T00:04:29.371Z,99735.72
2022-07-26T00:05:00.821Z,99726.19
2022-07-26T00:05:32.336Z,99732.06
2022-07-26T00:06:03.770Z,99731.19
2022-07-26T00:06:35.165Z,99728.19
2022-07-26T00:07:06.575Z,99737.56
2022-07-26T00:07:37.930Z,99730.53
2022-07-26T00:08:09.283Z,99735.72
2022-07-26T00:08:40.822Z,99728.00
2022-07-26T00:09:12.207Z,99731.88
2022-07-26T00:09:48.045Z,99726.53
2022-07-26T00:10:19.896Z,99734.22
2022-07-26T00:10:51.254Z,99723.84
2022-07-26T00:11:22.636Z,99737.06
2022-07-26T00:11:54.101Z,99731.19
2022-07-26T00:12:25.516Z,99731.56
2022-07-26T00:12:56.922Z,99728.00
2022-07-26T00:13:30.193Z,99729.38
2022-07-26T00:14:02.363Z,99730.19
2022-07-26T00:14:33.933Z,99721.16
2022-07-26T00:15:06.160Z,99728.50
2022-07-26T00:15:37.682Z,99730.19
2022-07-26T00:16:09.171Z,99724.00
2022-07-26T00:16:40.762Z,99721.34
2022-07-26T00:17:12.360Z,99726.19
2022-07-26T00:17:43.771Z,99728.00
2022-07-26T00:18:15.264Z,99724.66
2022-07-26T00:18:46.686Z,99722.81
2022-07-26T00:19:18.183Z,99722.97
2022-07-26T00:19:49.607Z,99720.84
2022-07-26T00:20:20.984Z,99731.56
2022-07-26T00:20:52.409Z,99721.16
2022-07-26T00:21:23.892Z,99724.84
2022-07-26T00:21:55.303Z,99727.53
2022-07-26T00:22:26.669Z,99722.28
2022-07-26T00:22:58.085Z,99735.84
2022-07-26T00:23:29.567Z,99732.19
2022-07-26T00:24:00.981Z,99721.47
2022-07-26T00:24:35.486Z,99725.13
2022-07-26T00:25:08.122Z,99728.66
2022-07-26T00:25:39.584Z,99720.47
2022-07-26T00:26:11.011Z,99731.19
2022-07-26T00:26:42.410Z,99728.50
2022-07-26T00:27:13.768Z,99727.81
2022-07-26T00:27:45.169Z,99727.97
2022-07-26T00:28:16.785Z,99722.63
2022-07-26T00:28:48.218Z,99718.66
2022-07-26T00:29:19.874Z,99722.28
2022-07-26T00:29:51.414Z,99726.69
2022-07-26T00:30:22.862Z,99720.47
2022-07-26T00:30:54.256Z,99722.47
2022-07-26T00:31:25.929Z,99724.16
2022-07-26T00:31:57.556Z,99717.09
2022-07-26T00:32:29.019Z,99718.66
2022-07-26T00:33:00.455Z,99716.28
2022-07-26T00:33:31.837Z,99712.72
2022-07-26T00:37:20.656Z,99725.13
2022-07-26T00:41:30.113Z,99721.47
2022-07-26T00:44:34.843Z,99729.66
2022-07-26T00:45:36.128Z,99730.19
2022-07-26T00:46:43.479Z,99731.56
2022-07-26T00:47:38.192Z,99731.88
2022-07-26T00:48:25.838Z,99731.03
2022-07-26T00:49:13.309Z,99728.00
2022-07-26T00:50:04.388Z,99730.69
2022-07-26T00:50:51.771Z,99727.84
2022-07-26T00:51:46.371Z,99734.56
2022-07-26T00:52:31.761Z,99731.31
2022-07-26T00:53:18.834Z,99730.50
2022-07-26T00:54:09.192Z,99728.34
2022-07-26T00:54:57.853Z,99736.06
2022-07-26T00:55:44.783Z,99731.56
2022-07-26T00:56:35.560Z,99732.53
2022-07-26T00:58:45.635Z,99731.31
2022-07-26T00:59:42.322Z,99734.88
2022-07-26T01:00:36.295Z,99748.25
2022-07-26T01:01:31.140Z,99740.09
2022-07-26T01:02:30.212Z,99747.09
2022-07-26T01:03:29.111Z,99746.28
2022-07-26T01:04:24.991Z,99742.59
2022-07-26T01:08:41.208Z,99729.84
2022-07-26T01:09:31.895Z,99728.81
2022-07-26T01:10:19.278Z,99737.88
2022-07-26T01:11:06.115Z,99733.69
2022-07-26T01:11:55.130Z,99731.88
2022-07-26T01:12:45.591Z,99728.88
2022-07-26T01:13:35.542Z,99735.56
2022-07-26T01:14:27.294Z,99734.72
2022-07-26T01:15:22.895Z,99740.38
2022-07-26T01:16:17.601Z,99735.19
2022-07-26T01:17:03.636Z,99733.19
2022-07-26T01:17:50.637Z,99735.19
2022-07-26T01:18:37.610Z,99727.16
2022-07-26T01:19:30.783Z,99736.03
2022-07-26T01:20:25.169Z,99732.50
2022-07-26T01:21:17.213Z,99726.50
2022-07-26T01:23:30.309Z,99731.69
2022-07-26T01:24:18.055Z,99733.50
2022-07-26T01:25:10.450Z,99730.81
2022-07-26T01:26:03.132Z,99731.00
2022-07-26T01:26:57.264Z,99733.88
2022-07-26T01:27:46.051Z,99729.50
2022-07-26T01:28:39.913Z,99732.06
2022-07-26T01:29:34.614Z,99724.31
2022-07-26T01:30:29.155Z,99726.81
2022-07-26T01:31:23.029Z,99730.50
2022-07-26T01:32:19.684Z,99737.53
2022-07-26T01:34:18.639Z,99735.84
2022-07-26T01:35:38.692Z,99732.19
2022-07-26T01:36:25.601Z,99741.53
2022-07-26T01:37:12.151Z,99742.41
2022-07-26T01:37:59.714Z,99736.03
2022-07-26T01:38:47.815Z,99731.69
2022-07-26T01:39:37.447Z,99728.81
2022-07-26T01:40:29.593Z,99728.31
2022-07-26T01:41:17.058Z,99733.50
2022-07-26T01:42:07.421Z,99740.72
2022-07-26T01:42:54.114Z,99728.16
2022-07-26T01:43:41.143Z,99733.50
2022-07-26T01:44:30.638Z,99726.81
2022-07-26T01:45:20.531Z,99735.19
2022-07-26T01:46:14.291Z,99734.53
2022-07-26T01:47:02.338Z,99734.16
2022-07-26T01:47:49.639Z,99732.50
2022-07-26T01:48:40.534Z,99732.50
2022-07-26T01:49:27.634Z,99737.22
2022-07-26T01:50:13.053Z,99736.19
2022-07-26T01:51:03.962Z,99738.69
2022-07-26T01:51:57.088Z,99738.69
2022-07-26T01:52:51.475Z,99743.22
2022-07-26T01:53:38.449Z,99746.06
2022-07-26T01:54:25.381Z,99742.03
2022-07-26T01:55:15.340Z,99748.59
2022-07-26T01:56:13.502Z,99748.25
2022-07-26T01:57:12.645Z,99748.44
2022-07-26T01:58:09.952Z,99746.75
2022-07-26T02:00:14.882Z,99738.88
2022-07-26T02:04:45.380Z,99743.22
2022-07-26T02:05:31.488Z,99745.91
2022-07-26T02:06:20.819Z,99750.59
2022-07-26T02:07:13.080Z,99744.06
2022-07-26T02:08:04.474Z,99745.25
2022-07-26T02:08:53.803Z,99743.22
2022-07-26T02:09:47.253Z,99747.75
2022-07-26T02:10:44.500Z,99750.44
2022-07-26T02:14:53.265Z,99749.91
2022-07-26T02:15:46.157Z,99757.63
2022-07-26T02:16:35.331Z,99748.59
2022-07-26T02:17:32.134Z,99750.25
2022-07-26T02:18:18.750Z,99750.25
2022-07-26T02:19:06.313Z,99749.59
2022-07-26T02:19:59.199Z,99749.41
2022-07-26T02:20:46.267Z,99756.81
2022-07-26T02:21:34.656Z,99761.03
2022-07-26T02:22:25.119Z,99757.16
2022-07-26T02:23:09.918Z,99757.50
2022-07-26T02:23:56.986Z,99768.03
2022-07-26T02:24:42.728Z,99759.66
2022-07-26T02:25:31.297Z,99756.66
2022-07-26T02:26:18.351Z,99752.47
2022-07-26T02:27:08.468Z,99762.03
2022-07-26T02:27:55.633Z,99758.97
2022-07-26T02:28:42.729Z,99759.97
2022-07-26T02:29:32.292Z,99757.97
2022-07-26T02:30:20.277Z,99765.38
2022-07-26T02:31:09.531Z,99761.53
2022-07-26T02:32:03.284Z,99760.81
2022-07-26T02:32:55.173Z,99752.13
2022-07-26T02:33:43.442Z,99760.50
2022-07-26T02:34:34.010Z,99760.97
2022-07-26T02:35:21.152Z,99750.94
2022-07-26T02:36:09.613Z,99753.47
2022-07-26T02:36:59.284Z,99760.13
2022-07-26T02:37:50.662Z,99757.28
2022-07-26T02:39:00.391Z,99759.34
2022-07-26T02:41:57.217Z,99751.63
2022-07-26T02:43:03.491Z,99762.50
2022-07-26T02:43:48.607Z,99759.00
2022-07-26T02:44:33.614Z,99760.16
2022-07-26T02:45:23.017Z,99759.34
2022-07-26T02:46:16.868Z,99759.19
2022-07-26T02:47:19.234Z,99761.34
2022-07-26T02:49:11.968Z,99772.88
2022-07-26T02:49:59.754Z,99768.69
2022-07-26T02:50:46.302Z,99763.72
2022-07-26T02:51:35.985Z,99758.69
2022-07-26T02:52:22.912Z,99770.69
2022-07-26T02:53:11.669Z,99767.00
2022-07-26T02:54:03.159Z,99764.03
2022-07-26T02:54:53.906Z,99765.16
2022-07-26T02:55:43.594Z,99762.34
2022-07-26T02:56:31.726Z,99763.00
2022-07-26T02:57:22.062Z,99761.81
2022-07-26T02:58:10.735Z,99759.31
2022-07-26T02:59:02.013Z,99766.69
2022-07-26T02:59:51.001Z,99761.16
2022-07-26T03:00:40.861Z,99754.44
2022-07-26T03:01:30.117Z,99757.47
2022-07-26T03:02:17.202Z,99761.34
2022-07-26T03:03:06.613Z,99760.81
2022-07-26T03:04:01.765Z,99756.78
2022-07-26T03:04:55.005Z,99755.81
2022-07-26T03:05:44.445Z,99753.44
2022-07-26T03:06:32.324Z,99760.47
2022-07-26T03:07:19.411Z,99757.94
2022-07-26T03:08:08.210Z,99764.00
2022-07-26T03:08:57.218Z,99760.97
2022-07-26T03:09:55.458Z,99764.66
2022-07-26T03:10:49.469Z,99759.63
2022-07-26T03:11:38.087Z,99752.44
2022-07-26T03:12:31.919Z,99759.81
2022-07-26T03:13:29.285Z,99748.91
2022-07-26T03:14:52.962Z,99755.28
2022-07-26T03:15:38.276Z,99762.16
2022-07-26T03:16:29.435Z,99765.00
2022-07-26T03:17:15.395Z,99756.47
2022-07-26T03:18:02.776Z,99762.97
2022-07-26T03:18:49.666Z,99766.03
2022-07-26T03:19:40.399Z,99760.66
2022-07-26T03:20:27.316Z,99769.06
2022-07-26T03:21:13.424Z,99765.69
2022-07-26T03:22:00.363Z,99761.66
2022-07-26T03:22:47.374Z,99764.34
2022-07-26T03:23:34.857Z,99769.88
2022-07-26T03:24:21.875Z,99760.47
2022-07-26T03:25:12.134Z,99772.38
2022-07-26T03:26:00.281Z,99768.84
2022-07-26T03:26:47.508Z,99775.72
2022-07-26T03:27:34.356Z,99768.50
2022-07-26T03:28:21.475Z,99774.56
2022-07-26T03:29:08.478Z,99778.41
2022-07-26T03:30:06.396Z,99777.41
2022-07-26T03:30:51.168Z,99773.53
2022-07-26T03:31:38.529Z,99775.56
2022-07-26T03:32:25.469Z,99770.03
2022-07-26T03:33:12.530Z,99765.00
2022-07-26T03:34:03.153Z,99764.00
2022-07-26T03:34:48.984Z,99772.03
2022-07-26T03:35:41.564Z,99766.84
2022-07-26T03:36:28.472Z,99770.03
2022-07-26T03:37:14.898Z,99771.88
2022-07-26T03:38:04.791Z,99773.03
2022-07-26T03:38:55.169Z,99773.19
2022-07-26T03:39:42.101Z,99772.03
2022-07-26T03:40:33.168Z,99774.88
2022-07-26T03:41:20.067Z,99767.00
2022-07-26T03:42:06.998Z,99773.38
2022-07-26T03:42:58.128Z,99771.34
2022-07-26T03:43:45.974Z,99772.03
2022-07-26T03:44:32.985Z,99780.75
2022-07-26T03:45:23.949Z,99777.44
2022-07-26T03:46:17.009Z,99773.06
2022-07-26T03:47:09.823Z,99771.69
2022-07-26T03:48:04.146Z,99771.19
2022-07-26T03:48:57.438Z,99781.56
2022-07-26T03:49:49.681Z,99771.03
2022-07-26T03:50:45.083Z,99776.72
2022-07-26T03:51:39.093Z,99777.91
2022-07-26T03:52:26.011Z,99782.09
2022-07-26T03:53:12.507Z,99778.06
2022-07-26T03:54:00.233Z,99783.78
2022-07-26T03:54:46.886Z,99776.88
2022-07-26T03:55:35.176Z,99784.41
2022-07-26T03:56:28.133Z,99779.06
2022-07-26T03:57:19.000Z,99789.09
2022-07-26T03:58:10.761Z,99791.63
2022-07-26T03:59:00.648Z,99786.44
2022-07-26T03:59:48.854Z,99786.94
2022-07-26T04:00:37.783Z,99785.78
2022-07-26T04:01:33.960Z,99791.47
2022-07-26T04:02:27.993Z,99792.44
2022-07-26T04:04:56.842Z,99794.81
2022-07-26T04:05:48.640Z,99802.19
2022-07-26T04:06:38.124Z,99795.13
2022-07-26T04:07:23.977Z,99790.78
2022-07-26T04:08:10.855Z,99798.84
2022-07-26T04:09:00.682Z,99801.50
2022-07-26T04:09:50.376Z,99798.84
2022-07-26T04:10:36.388Z,99797.81
2022-07-26T04:11:26.650Z,99793.97
2022-07-26T04:12:17.432Z,99798.47
2022-07-26T04:13:04.167Z,99793.13
2022-07-26T04:13:53.699Z,99793.81
2022-07-26T04:14:44.294Z,99797.31
2022-07-26T04:15:32.549Z,99797.66
2022-07-26T04:16:20.955Z,99800.50
2022-07-26T04:17:13.713Z,99809.75
2022-07-26T04:17:59.246Z,99803.22
2022-07-26T04:18:46.532Z,99803.53
2022-07-26T04:19:31.677Z,99802.88
2022-07-26T04:20:19.144Z,99799.38
2022-07-26T04:21:07.593Z,99805.22
2022-07-26T04:22:10.956Z,99810.25
2022-07-26T04:23:11.455Z,99799.88
2022-07-26T04:28:32.497Z,99807.22
2022-07-26T04:29:11.034Z,99803.16
2022-07-26T04:29:48.223Z,99796.81
2022-07-26T04:30:25.107Z,99803.16
2022-07-26T04:31:02.059Z,99810.06
2022-07-26T04:31:39.257Z,99807.56
2022-07-26T04:32:16.902Z,99819.78
2022-07-26T04:32:53.911Z,99816.94
2022-07-26T04:33:30.523Z,99811.94
2022-07-26T04:34:07.683Z,99813.75
2022-07-26T04:34:43.817Z,99811.75
2022-07-26T04:35:20.727Z,99817.63
2022-07-26T04:35:57.514Z,99810.88
2022-07-26T04:36:34.138Z,99825.09
2022-07-26T04:37:10.712Z,99821.44
2022-07-26T04:37:48.342Z,99815.25
2022-07-26T04:38:25.320Z,99819.91
2022-07-26T04:39:02.144Z,99819.91
2022-07-26T04:39:38.773Z,99820.59
2022-07-26T04:40:21.084Z,99826.00
2022-07-26T04:40:58.249Z,99821.47
2022-07-26T04:41:35.915Z,99817.81
2022-07-26T04:42:13.158Z,99815.78
2022-07-26T04:42:52.044Z,99814.63
2022-07-26T04:43:34.131Z,99825.69
2022-07-26T04:44:15.630Z,99821.81
2022-07-26T04:44:57.306Z,99815.94
2022-07-26T04:45:41.743Z,99825.97
2022-07-26T04:46:26.494Z,99822.78
2022-07-26T04:47:06.569Z,99823.59
2022-07-26T04:47:49.139Z,99820.94
2022-07-26T04:48:27.038Z,99820.78
2022-07-26T04:49:03.686Z,99826.28
2022-07-26T04:49:40.450Z,99823.59
2022-07-26T04:50:17.125Z,99826.97
2022-07-26T04:50:53.945Z,99821.59
2022-07-26T04:51:31.478Z,99824.28
2022-07-26T04:52:08.656Z,99825.63
2022-07-26T04:52:45.260Z,99834.66
2022-07-26T04:53:22.736Z,99830.28
2022-07-26T04:53:59.495Z,99823.09
2022-07-26T04:54:36.304Z,99834.81
2022-07-26T04:55:13.112Z,99833.13
2022-07-26T04:55:50.278Z,99829.47
2022-07-26T04:56:31.096Z,99832.31
2022-07-26T04:57:08.390Z,99834.97
2022-07-26T04:57:45.471Z,99835.81
2022-07-26T04:58:25.174Z,99832.47
2022-07-26T04:59:02.787Z,99832.97
2022-07-26T04:59:40.768Z,99836.66
2022-07-26T05:00:21.738Z,99842.69
2022-07-26T05:01:14.439Z,99834.00
2022-07-26T05:01:51.762Z,99835.47
2022-07-26T05:02:28.928Z,99840.00
2022-07-26T05:03:06.253Z,99839.50
2022-07-26T05:03:44.474Z,99838.31
2022-07-26T05:04:21.815Z,99838.50
2022-07-26T05:04:59.330Z,99831.47
2022-07-26T05:05:36.670Z,99843.03
2022-07-26T05:06:14.466Z,99840.34
2022-07-26T05:06:52.100Z,99839.50
2022-07-26T05:07:29.319Z,99845.69
2022-07-26T05:08:07.217Z,99838.66
2022-07-26T05:08:45.208Z,99841.88
2022-07-26T05:09:22.983Z,99840.19
2022-07-26T05:10:00.720Z,99835.66
2022-07-26T05:10:38.346Z,99842.03
2022-07-26T05:11:16.019Z,99837.66
2022-07-26T05:11:53.896Z,99845.69
2022-07-26T05:12:34.447Z,99839.34
2022-07-26T05:13:16.288Z,99846.38
2022-07-26T05:14:00.825Z,99842.84
2022-07-26T05:14:38.942Z,99849.03
2022-07-26T05:15:18.744Z,99842.84
2022-07-26T05:15:57.346Z,99852.75
2022-07-26T05:16:39.275Z,99848.38
2022-07-26T05:17:22.625Z,99848.38
2022-07-26T05:18:13.458Z,99850.72
2022-07-26T05:19:01.151Z,99848.38
2022-07-26T05:19:44.870Z,99846.69
2022-07-26T05:20:24.778Z,99847.88
2022-07-26T05:21:01.770Z,99846.69
2022-07-26T05:21:38.656Z,99851.06
2022-07-26T05:22:15.510Z,99841.75
2022-07-26T05:22:52.441Z,99840.88
2022-07-26T05:23:29.835Z,99846.09
2022-07-26T05:24:07.797Z,99849.25
2022-07-26T05:24:44.072Z,99839.41
2022-07-26T05:25:21.063Z,99848.75
2022-07-26T05:25:58.156Z,99843.88
2022-07-26T05:26:35.186Z,99843.03
2022-07-26T05:27:12.249Z,99847.72
2022-07-26T05:27:49.686Z,99846.91
2022-07-26T05:28:26.215Z,99838.31
2022-07-26T05:29:03.395Z,99839.03
2022-07-26T05:29:40.535Z,99842.84
2022-07-26T05:30:17.543Z,99849.03
2022-07-26T05:30:54.611Z,99838.66
2022-07-26T05:31:31.890Z,99847.72
2022-07-26T05:32:08.873Z,99842.53
2022-07-26T05:32:45.478Z,99846.38
2022-07-26T05:33:22.520Z,99837.50
2022-07-26T05:33:59.806Z,99841.00
2022-07-26T05:34:37.186Z,99834.00
2022-07-26T05:35:14.687Z,99837.16
2022-07-26T05:35:52.889Z,99844.22
2022-07-26T05:36:30.250Z,99841.69
2022-07-26T05:37:07.763Z,99846.41
2022-07-26T05:37:44.977Z,99838.50
2022-07-26T05:38:22.366Z,99837.66
2022-07-26T05:38:59.704Z,99836.56
2022-07-26T05:39:38.438Z,99829.19
2022-07-26T05:40:18.351Z,99839.91
2022-07-26T05:40:59.064Z,99839.72
2022-07-26T05:41:40.458Z,99840.22
2022-07-26T05:42:26.884Z,99829.84
2022-07-26T05:43:12.570Z,99832.53
2022-07-26T05:43:55.330Z,99838.75
2022-07-26T05:44:34.551Z,99837.38
2022-07-26T05:45:12.019Z,99832.47
2022-07-26T05:45:49.015Z,99835.16
2022-07-26T05:46:25.779Z,99830.63
2022-07-26T05:47:02.611Z,99837.16
2022-07-26T05:47:40.032Z,99835.31
2022-07-26T05:48:17.303Z,99837.16
2022-07-26T05:48:54.394Z,99839.69
2022-07-26T05:49:40.064Z,99836.34
2022-07-26T05:50:16.869Z,99839.69
2022-07-26T05:50:53.845Z,99841.34
2022-07-26T05:51:30.598Z,99834.34
2022-07-26T05:52:07.352Z,99838.00
2022-07-26T05:52:44.144Z,99839.69
2022-07-26T05:53:20.541Z,99834.34
2022-07-26T05:53:57.381Z,99841.34
2022-07-26T05:54:34.669Z,99833.72
2022-07-26T05:55:11.294Z,99837.66
2022-07-26T05:55:48.028Z,99845.03
2022-07-26T05:56:25.101Z,99840.84
2022-07-26T05:57:01.513Z,99840.00
2022-07-26T05:57:38.242Z,99834.81
2022-07-26T05:58:15.139Z,99841.00
2022-07-26T05:58:51.772Z,99840.84
2022-07-26T05:59:28.593Z,99846.19
2022-07-26T06:00:05.486Z,99846.38
2022-07-26T06:00:48.290Z,99841.00
2022-07-26T06:01:25.503Z,99846.91
2022-07-26T06:02:03.788Z,99839.84
2022-07-26T06:02:42.365Z,99844.53
2022-07-26T06:03:23.900Z,99838.31
2022-07-26T06:04:04.468Z,99847.38
2022-07-26T06:04:44.004Z,99847.06
2022-07-26T06:05:27.573Z,99841.69
2022-07-26T06:06:10.020Z,99850.72
2022-07-26T06:06:52.646Z,99846.38
2022-07-26T06:07:34.562Z,99850.41
2022-07-26T06:08:15.212Z,99841.69
2022-07-26T06:08:56.526Z,99843.34
2022-07-26T06:09:43.309Z,99848.06
2022-07-26T06:10:29.311Z,99853.56
2022-07-26T06:11:10.713Z,99855.44
2022-07-26T06:11:48.698Z,99851.41
2022-07-26T06:12:25.465Z,99853.47
2022-07-26T06:13:02.099Z,99854.75
2022-07-26T06:13:38.951Z,99850.72
2022-07-26T06:14:16.100Z,99854.94
2022-07-26T06:14:52.647Z,99847.72
2022-07-26T06:15:29.838Z,99854.94
2022-07-26T06:16:06.810Z,99856.09
2022-07-26T06:16:43.698Z,99855.75
2022-07-26T06:17:20.611Z,99847.88
2022-07-26T06:17:57.813Z,99853.09
2022-07-26T06:18:35.483Z,99849.91
2022-07-26T06:19:12.964Z,99848.06
2022-07-26T06:19:50.841Z,99856.91
2022-07-26T06:20:28.411Z,99855.44
2022-07-26T06:21:05.187Z,99857.25
2022-07-26T06:21:42.940Z,99857.09
2022-07-26T06:22:19.844Z,99858.09
2022-07-26T06:22:56.698Z,99856.09
2022-07-26T06:23:35.004Z,99855.25
2022-07-26T06:24:11.944Z,99854.41
2022-07-26T06:24:49.214Z,99851.72
2022-07-26T06:25:26.199Z,99854.41
2022-07-26T06:26:02.964Z,99855.25
2022-07-26T06:26:39.840Z,99849.91
2022-07-26T06:27:17.379Z,99855.44
2022-07-26T06:27:54.379Z,99856.41
2022-07-26T06:28:31.839Z,99857.09
2022-07-26T06:29:08.703Z,99855.09
2022-07-26T06:29:46.160Z,99851.06
2022-07-26T06:30:23.629Z,99854.41
2022-07-26T06:31:00.613Z,99857.41
2022-07-26T06:31:38.388Z,99856.41
2022-07-26T06:32:16.076Z,99859.75
2022-07-26T06:32:53.668Z,99855.44
2022-07-26T06:33:30.817Z,99855.25
2022-07-26T06:34:10.089Z,99855.75
2022-07-26T06:35:36.568Z,99857.94
2022-07-26T06:36:30.741Z,99863.13
2022-07-26T06:37:17.983Z,99855.59
2022-07-26T06:38:04.712Z,99861.34
2022-07-26T06:38:55.197Z,99856.81
2022-07-26T06:39:44.718Z,99859.00
2022-07-26T06:40:37.081Z,99864.19
2022-07-26T06:41:24.272Z,99855.16
2022-07-26T06:42:12.965Z,99858.00
2022-07-26T06:43:13.256Z,99857.31
2022-07-26T06:45:35.022Z,99864.34
2022-07-26T06:46:19.516Z,99866.84
2022-07-26T06:47:04.222Z,99869.66
2022-07-26T06:47:50.158Z,99864.63
2022-07-26T06:48:38.113Z,99864.13
2022-07-26T06:49:28.604Z,99870.47
2022-07-26T06:50:17.862Z,99860.63
2022-07-26T06:51:14.820Z,99863.13
2022-07-26T06:52:02.958Z,99866.81
2022-07-26T06:52:51.545Z,99873.84
2022-07-26T06:53:40.430Z,99871.19
2022-07-26T06:54:39.492Z,99870.31
2022-07-26T06:59:56.876Z,99869.97
2022-07-26T07:00:36.551Z,99874.50
2022-07-26T07:01:58.775Z,99879.00
2022-07-26T07:02:13.612Z,99869.97
2022-07-26T07:03:01.542Z,99881.19
2022-07-26T07:03:57.497Z,99877.19
2022-07-26T07:04:49.872Z,99872.06
2022-07-26T08:12:47.759Z,99926.91
2022-07-26T08:14:27.013Z,99918.03
2022-07-26T08:15:16.324Z,99922.41
2022-07-26T08:23:18.184Z,99907.00
2022-07-26T08:24:16.729Z,99907.16
2022-07-26T08:25:04.639Z,99912.19
2022-07-26T10:02:43.715Z,99949.38
2022-07-26T10:03:49.805Z,99946.88
2022-07-26T10:04:28.226Z,99950.59
2022-07-26T10:05:19.873Z,99952.44
2022-07-26T10:07:12.671Z,99951.91
2022-07-26T10:10:46.288Z,99957.25
2022-07-26T10:11:29.628Z,99960.31
2022-07-26T10:12:15.559Z,99957.97
2022-07-26T10:13:00.086Z,99951.28
2022-07-26T11:22:09.875Z,100001.25
2022-07-26T11:23:26.950Z,100002.59
2022-07-26T11:24:27.406Z,100008.13
2022-07-26T11:25:26.067Z,100008.13
2022-07-26T11:26:12.934Z,100014.47
2022-07-26T11:27:01.495Z,100018.34
2022-07-26T12:35:50.729Z,100065.34
2022-07-26T12:36:28.154Z,100070.72
2022-07-26T12:37:10.247Z,100068.84
2022-07-26T12:37:49.100Z,100057.81
2022-07-26T12:38:38.539Z,100067.72
2022-07-26T12:39:10.038Z,100065.84
2022-07-26T12:39:41.945Z,100064.03
2022-07-26T12:40:17.691Z,100065.69
2022-07-26T12:42:44.414Z,100066.56
2022-07-26T12:43:31.603Z,100064.03
2022-07-26T12:44:25.392Z,100066.19
2022-07-26T12:45:16.059Z,100070.22
2022-07-26T12:46:05.520Z,100065.19
2022-07-26T12:47:10.480Z,100063.19
2022-07-26T12:48:37.298Z,100062.19
2022-07-26T12:49:29.724Z,100068.88
2022-07-26T12:50:19.563Z,100069.41
2022-07-26T12:51:09.658Z,100069.59
2022-07-26T12:52:06.399Z,100066.56
2022-07-26T12:53:36.232Z,100066.91
2022-07-26T12:54:42.174Z,100065.56
2022-07-26T12:55:28.810Z,100062.22
2022-07-26T12:56:16.304Z,100054.84
2022-07-26T12:57:08.277Z,100064.22
2022-07-26T12:57:59.674Z,100062.22
2022-07-26T12:58:47.017Z,100059.69
2022-07-26T12:59:44.972Z,100057.19
2022-07-26T13:00:43.844Z,100060.69
2022-07-26T13:01:38.798Z,100057.69
2022-07-26T13:02:43.156Z,100056.88
2022-07-26T13:06:06.572Z,100049.84
2022-07-26T13:06:56.070Z,100053.91
2022-07-26T13:08:44.436Z,100048.16
2022-07-26T13:09:21.872Z,100055.88
2022-07-26T13:10:30.425Z,100055.56
2022-07-26T13:10:59.847Z,100053.53
2022-07-26T13:11:37.383Z,100057.56
2022-07-26T13:12:15.396Z,100054.88
2022-07-26T13:12:52.353Z,100050.88
2022-07-26T13:13:30.207Z,100051.56
2022-07-26T13:14:09.308Z,100046.19
2022-07-26T13:14:48.815Z,100043.50
2022-07-26T13:15:37.131Z,100047.88
2022-07-26T13:16:24.049Z,100051.56
2022-07-26T13:17:08.764Z,100048.88
2022-07-26T13:17:45.436Z,100046.19
2022-07-26T13:18:22.688Z,100037.47
2022-07-26T13:18:59.920Z,100046.84
2022-07-26T13:19:37.412Z,100048.53
2022-07-26T13:20:14.627Z,100042.19
2022-07-26T13:20:54.730Z,100042.19
2022-07-26T13:21:33.957Z,100041.16
2022-07-26T13:22:12.689Z,100037.47
2022-07-26T13:22:51.903Z,100043.50
2022-07-26T13:23:31.124Z,100043.16
2022-07-26T13:24:09.766Z,100042.19
2022-07-26T13:24:49.628Z,100045.69
2022-07-26T13:25:29.076Z,100041.16
2022-07-26T13:26:20.240Z,100036.97
2022-07-26T13:27:10.980Z,100044.84
2022-07-26T13:27:56.251Z,100042.84
2022-07-26T13:28:34.195Z,100048.56
2022-07-26T13:29:11.116Z,100045.56
2022-07-26T13:29:48.162Z,100047.56
2022-07-26T13:30:26.811Z,100045.03
2022-07-26T13:31:05.321Z,100041.34
2022-07-26T13:31:42.415Z,100050.41
2022-07-26T13:32:19.550Z,100045.53
2022-07-26T13:32:57.575Z,100040.84
2022-07-26T13:33:36.336Z,100044.84
2022-07-26T13:34:13.906Z,100046.53
2022-07-26T13:34:50.438Z,100044.84
2022-07-26T13:35:28.341Z,100046.53
2022-07-26T13:36:05.596Z,100047.03
2022-07-26T13:36:42.797Z,100043.84
2022-07-26T13:37:20.735Z,100054.91
2022-07-26T13:37:57.623Z,100048.72
2022-07-26T13:38:35.516Z,100048.22
2022-07-26T13:39:12.886Z,100052.22
2022-07-26T13:39:51.225Z,100059.59
2022-07-26T13:40:31.499Z,100054.56
2022-07-26T13:41:08.359Z,100053.41
2022-07-26T13:41:45.610Z,100060.28
2022-07-26T13:42:23.024Z,100046.34
2022-07-26T13:43:00.587Z,100052.94
2022-07-26T13:43:37.750Z,100053.25
2022-07-26T13:44:14.977Z,100054.44
2022-07-26T13:44:52.986Z,100057.59
2022-07-26T13:45:30.642Z,100051.56
2022-07-26T13:46:08.187Z,100046.53
2022-07-26T13:46:46.240Z,100051.56
2022-07-26T13:47:23.444Z,100048.56
2022-07-26T13:48:01.170Z,100049.53
2022-07-26T13:48:44.079Z,100052.38
2022-07-26T13:49:35.592Z,100049.22
2022-07-26T13:50:15.983Z,100053.91
2022-07-26T13:51:01.937Z,100061.28
2022-07-26T13:51:49.612Z,100052.38
2022-07-26T13:52:35.230Z,100050.56
2022-07-26T13:53:15.623Z,100053.72
2022-07-26T13:53:55.222Z,100057.59
2022-07-26T13:54:41.017Z,100059.28
2022-07-26T13:55:26.264Z,100056.25
2022-07-26T13:56:03.961Z,100060.09
2022-07-26T13:56:40.756Z,100054.22
2022-07-26T13:57:17.937Z,100061.09
2022-07-26T13:57:57.218Z,100063.63
2022-07-26T13:58:41.637Z,100063.47
2022-07-26T13:59:26.159Z,100058.78
2022-07-26T14:00:26.827Z,100063.47
2022-07-26T14:01:08.183Z,100064.28
2022-07-26T14:01:45.614Z,100057.56
2022-07-26T14:02:35.355Z,100064.63
2022-07-26T14:03:22.004Z,100062.94
2022-07-26T14:04:03.081Z,100067.97
2022-07-26T14:04:39.941Z,100066.63
2022-07-26T14:05:16.837Z,100057.88
2022-07-26T14:05:54.325Z,100069.31
2022-07-26T14:06:32.362Z,100062.72
2022-07-26T14:07:10.023Z,100065.94
2022-07-26T14:07:52.013Z,100062.56
2022-07-26T14:08:34.926Z,100062.94
2022-07-26T14:09:16.284Z,100063.25
2022-07-26T14:09:53.889Z,100067.94
2022-07-26T14:10:30.650Z,100065.25
2022-07-26T14:11:07.382Z,100064.63
2022-07-26T14:11:45.649Z,100069.16
2022-07-26T14:12:23.244Z,100066.81
2022-07-26T14:13:01.019Z,100068.81
2022-07-26T14:13:39.268Z,100064.47
2022-07-26T14:14:17.514Z,100064.31
2022-07-26T14:14:55.290Z,100067.31
2022-07-26T14:15:32.851Z,100065.63
2022-07-26T14:16:10.450Z,100068.81
2022-07-26T14:16:49.694Z,100074.66
2022-07-26T14:17:26.936Z,100062.25
2022-07-26T14:18:04.560Z,100067.63
2022-07-26T14:18:41.817Z,100064.63
2022-07-26T14:19:19.364Z,100067.63
2022-07-26T14:19:56.648Z,100070.66
2022-07-26T14:20:34.633Z,100064.28
2022-07-26T14:21:12.578Z,100072.00
2022-07-26T14:21:59.326Z,100063.94
2022-07-26T14:22:37.268Z,100064.28
2022-07-26T14:23:16.858Z,100068.28
2022-07-26T14:23:55.126Z,100068.75
2022-07-26T14:24:36.686Z,100068.72
2022-07-26T14:25:19.923Z,100076.63
2022-07-26T14:26:01.738Z,100070.63
2022-07-26T14:26:47.249Z,100072.16
2022-07-26T14:27:33.767Z,100072.50